Time;durP1;ratioP1;P1;durP2;ratioP2;P2;SDS_P1;SDS_P2;PMS_P1;PMS_P2;Temp;Humidity;BMP_temperature;BMP_pressure;BME280_temperature;BME280_humidity;BME280_pressure;Samples;Min_cycle;Max_cycle;Signal;HPM_P1;HPM_P2
2024/01/12 00:01:19;;;;;;;24.40;12.50;;;;;;;-0.44;100.00;100895.01;109916;1238;70831;-79
2024/01/12 00:03:50;;;;;;;24.20;12.90;;;;;;;-0.46;100.00;100895.89;109938;1237;72505;-78
2024/01/12 00:06:19;;;;;;;23.40;12.90;;;;;;;-0.44;100.00;100892.77;109913;1237;70740;-78
2024/01/12 00:08:48;;;;;;;20.80;12.90;;;;;;;-0.48;100.00;100900.23;109936;1237;72717;-78
2024/01/12 00:11:17;;;;;;;21.10;12.30;;;;;;;-0.47;100.00;100909.10;109775;1238;59940;-78
2024/01/12 00:13:46;;;;;;;21.00;10.30;;;;;;;-0.53;100.00;100901.88;109837;1241;58951;-78
2024/01/12 00:16:15;;;;;;;26.50;13.60;;;;;;;-0.64;100.00;100908.29;109769;1241;71482;-73
2024/01/12 00:18:44;;;;;;;24.80;13.90;;;;;;;-0.63;100.00;100915.13;109948;1236;71961;-75
2024/01/12 00:21:13;;;;;;;19.90;10.60;;;;;;;-0.62;100.00;100913.71;109968;1237;70130;-76
2024/01/12 00:23:42;;;;;;;26.20;14.00;;;;;;;-0.61;100.00;100914.90;109967;1238;72229;-75
2024/01/12 00:26:11;;;;;;;25.80;13.20;;;;;;;-0.56;100.00;100920.27;109950;1238;60324;-79
2024/01/12 00:28:40;;;;;;;23.70;12.70;;;;;;;-0.62;100.00;100920.90;109977;1238;61091;-75
2024/01/12 00:31:08;;;;;;;18.90;10.90;;;;;;;-0.62;100.00;100925.19;109963;1238;72928;-75
2024/01/12 00:33:37;;;;;;;27.80;13.40;;;;;;;-0.56;100.00;100917.52;109958;1238;68932;-76
2024/01/12 00:36:06;;;;;;;25.50;14.00;;;;;;;-0.63;100.00;100917.16;109820;1241;68652;-76
2024/01/12 00:38:35;;;;;;;22.00;12.40;;;;;;;-0.62;100.00;100921.59;109814;1241;72479;-76
2024/01/12 00:41:04;;;;;;;28.00;12.40;;;;;;;-0.63;100.00;100920.44;109779;1240;61878;-77
2024/01/12 00:43:33;;;;;;;19.80;11.20;;;;;;;-0.54;100.00;100921.58;110007;1236;60841;-78
2024/01/12 00:46:02;;;;;;;24.10;13.60;;;;;;;-0.52;100.00;100921.88;109933;1241;72802;-74
2024/01/12 00:48:31;;;;;;;21.40;11.60;;;;;;;-0.51;100.00;100924.08;110096;1237;72143;-76
2024/01/12 00:51:00;;;;;;;25.20;13.50;;;;;;;-0.56;100.00;100925.56;110128;1237;70701;-75
2024/01/12 00:53:29;;;;;;;20.50;11.80;;;;;;;-0.53;100.00;100916.25;110117;1238;73347;-76
2024/01/12 00:55:58;;;;;;;30.10;13.20;;;;;;;-0.53;100.00;100910.09;110122;1238;60657;-76
2024/01/12 00:58:27;;;;;;;24.10;12.50;;;;;;;-0.58;100.00;100919.60;110163;1238;59455;-76
2024/01/12 01:00:56;;;;;;;26.70;13.80;;;;;;;-0.54;100.00;100915.42;110153;1237;74295;-77
2024/01/12 01:03:25;;;;;;;24.30;14.20;;;;;;;-0.53;100.00;100910.61;110170;1236;72487;-77
2024/01/12 01:05:53;;;;;;;21.50;11.50;;;;;;;-0.54;100.00;100919.69;110148;1236;70326;-77
2024/01/12 01:08:22;;;;;;;22.40;12.60;;;;;;;-0.55;100.00;100916.99;110091;1238;74202;-77
2024/01/12 01:10:51;;;;;;;21.30;12.10;;;;;;;-0.57;100.00;100912.92;109969;1242;60763;-75
2024/01/12 01:13:20;;;;;;;23.50;13.80;;;;;;;-0.58;100.00;100906.79;110151;1236;59906;-75
2024/01/12 01:15:49;;;;;;;24.50;12.90;;;;;;;-0.62;100.00;100904.65;109961;1238;74758;-75
2024/01/12 01:18:17;;;;;;;20.20;10.70;;;;;;;-0.55;100.00;100898.17;110111;1238;72515;-75
2024/01/12 01:20:47;;;;;;;23.40;12.40;;;;;;;-0.51;100.00;100900.48;110173;1236;70188;-75
2024/01/12 01:23:17;;;;;;;25.40;12.10;;;;;;;-0.61;100.00;100902.06;110135;1238;71806;-76
2024/01/12 01:25:46;;;;;;;22.80;12.80;;;;;;;-0.68;100.00;100903.09;109838;1240;60068;-75
2024/01/12 01:28:14;;;;;;;27.30;14.60;;;;;;;-0.64;100.00;100901.80;110129;1236;61071;-77
2024/01/12 01:30:44;;;;;;;24.70;12.90;;;;;;;-0.63;100.00;100911.00;109997;1241;72998;-76
2024/01/12 01:33:12;;;;;;;27.30;14.40;;;;;;;-0.71;100.00;100905.55;110118;1238;71231;-74
2024/01/12 01:35:41;;;;;;;26.80;13.90;;;;;;;-0.68;100.00;100904.63;110161;1239;70364;-73
2024/01/12 01:38:10;;;;;;;25.70;14.80;;;;;;;-0.65;100.00;100905.41;110110;1238;71487;-72
2024/01/12 01:40:39;;;;;;;19.40;10.20;;;;;;;-0.64;100.00;100913.42;109916;1240;59584;-73
2024/01/12 01:43:08;;;;;;;25.20;14.10;;;;;;;-0.68;100.00;100907.02;109977;1237;61138;-73
2024/01/12 01:45:37;;;;;;;27.50;14.10;;;;;;;-0.72;100.00;100906.43;109781;1237;74870;-73
2024/01/12 01:48:08;;;;;;;18.10;10.90;;;;;;;-0.80;100.00;100906.61;109884;1239;70281;-73
2024/01/12 01:50:37;;;;;;;27.20;13.30;;;;;;;-0.70;100.00;100907.77;109691;1238;69506;-73
2024/01/12 01:53:07;;;;;;;27.80;14.40;;;;;;;-0.66;100.00;100911.25;109967;1238;70483;-73
2024/01/12 01:55:36;;;;;;;28.10;15.20;;;;;;;-0.64;100.00;100908.98;109780;1240;61117;-73
2024/01/12 01:58:05;;;;;;;27.50;13.20;;;;;;;-0.64;100.00;100906.94;109670;1241;61171;-73
2024/01/12 02:00:34;;;;;;;26.80;12.50;;;;;;;-0.71;100.00;100905.55;109761;1237;74318;-73
2024/01/12 02:03:04;;;;;;;27.90;14.70;;;;;;;-0.72;100.00;100903.86;109932;1236;71882;-73
2024/01/12 02:05:35;;;;;;;27.40;14.70;;;;;;;-0.75;100.00;100898.98;110084;1237;70265;-72
2024/01/12 02:08:04;;;;;;;31.20;15.60;;;;;;;-0.71;100.00;100895.13;110083;1238;74369;-73
2024/01/12 02:10:33;;;;;;;25.90;13.40;;;;;;;-0.73;100.00;100896.19;109814;1240;59938;-73
2024/01/12 02:13:02;;;;;;;29.20;15.70;;;;;;;-0.83;100.00;100898.31;109972;1236;60062;-73
2024/01/12 02:15:30;;;;;;;22.10;11.80;;;;;;;-0.88;100.00;100892.40;109911;1238;73582;-73
2024/01/12 02:17:59;;;;;;;20.70;12.30;;;;;;;-0.84;100.00;100889.25;109781;1241;71701;-73
2024/01/12 02:20:28;;;;;;;29.40;15.20;;;;;;;-0.87;100.00;100899.75;109936;1237;68982;-74
2024/01/12 02:22:57;;;;;;;32.60;15.80;;;;;;;-0.91;100.00;100904.11;109935;1238;71252;-72
2024/01/12 02:25:26;;;;;;;28.20;15.20;;;;;;;-0.96;100.00;100904.21;109939;1238;60207;-73
2024/01/12 02:27:55;;;;;;;30.30;16.40;;;;;;;-0.87;100.00;100906.40;109924;1237;62165;-75
2024/01/12 02:30:23;;;;;;;25.50;14.10;;;;;;;-0.86;100.00;100909.29;109814;1238;73156;-75
2024/01/12 02:32:52;;;;;;;23.40;13.30;;;;;;;-0.84;100.00;100913.02;109956;1235;70326;-75
2024/01/12 02:35:21;;;;;;;30.60;15.10;;;;;;;-0.81;100.00;100916.03;109709;1236;68725;-74
2024/01/12 02:37:50;;;;;;;28.60;15.60;;;;;;;-0.81;100.00;100913.11;110065;1238;73172;-74
2024/01/12 02:40:19;;;;;;;29.60;14.70;;;;;;;-0.78;100.00;100918.03;110044;1238;62491;-75
2024/01/12 02:42:47;;;;;;;33.80;15.40;;;;;;;-0.78;100.00;100916.65;109820;1237;61424;-74
2024/01/12 02:45:16;;;;;;;31.80;15.30;;;;;;;-0.78;100.00;100914.94;109921;1237;73263;-75
2024/01/12 02:47:45;;;;;;;36.20;16.60;;;;;;;-0.74;100.00;100919.64;110098;1238;69709;-76
2024/01/12 02:50:14;;;;;;;31.30;16.00;;;;;;;-0.75;100.00;100922.74;110211;1237;69763;-76
2024/01/12 02:52:43;;;;;;;34.50;16.90;;;;;;;-0.78;100.00;100922.30;110415;1238;72698;-74
2024/01/12 02:55:11;;;;;;;28.00;15.80;;;;;;;-0.78;100.00;100923.15;110189;1241;61064;-76
2024/01/12 02:57:40;;;;;;;30.20;15.20;;;;;;;-0.78;100.00;100929.81;110142;1237;58536;-74
2024/01/12 03:00:10;;;;;;;30.00;16.00;;;;;;;-0.75;100.00;100933.34;109644;1241;74949;-74
2024/01/12 03:02:39;;;;;;;30.30;17.20;;;;;;;-0.80;100.00;100938.91;109880;1238;72548;-75
2024/01/12 03:05:08;;;;;;;29.30;15.40;;;;;;;-0.74;100.00;100938.98;109953;1238;69400;-74
2024/01/12 03:07:37;;;;;;;33.10;17.10;;;;;;;-0.74;100.00;100935.89;109864;1238;73370;-75
2024/01/12 03:10:06;;;;;;;34.50;15.90;;;;;;;-0.79;100.00;100939.25;109874;1238;60740;-74
2024/01/12 03:12:35;;;;;;;40.50;18.30;;;;;;;-0.76;100.00;100940.20;109899;1236;58633;-74
2024/01/12 03:15:04;;;;;;;27.20;15.20;;;;;;;-0.84;100.00;100949.44;109917;1238;73339;-74
2024/01/12 03:17:33;;;;;;;34.50;18.00;;;;;;;-0.88;100.00;100946.61;109911;1237;70322;-74
2024/01/12 03:20:04;;;;;;;32.10;16.20;;;;;;;-0.83;100.00;100945.65;109944;1238;68497;-74
2024/01/12 03:22:36;;;;;;;31.50;16.30;;;;;;;-0.85;100.00;100947.07;109628;1238;73899;-74
2024/01/12 03:25:05;;;;;;;31.00;14.80;;;;;;;-0.82;100.00;100954.36;109769;1240;62380;-74
2024/01/12 03:27:34;;;;;;;28.20;15.20;;;;;;;-0.86;100.00;100951.02;109647;1238;61538;-74
2024/01/12 03:30:03;;;;;;;36.50;19.70;;;;;;;-0.83;100.00;100951.81;109760;1238;74911;-74
2024/01/12 03:32:35;;;;;;;33.70;18.10;;;;;;;-0.91;100.00;100952.33;109945;1236;71989;-73
2024/01/12 03:35:04;;;;;;;29.30;14.10;;;;;;;-0.85;100.00;100951.18;110017;1235;69221;-74
2024/01/12 03:37:33;;;;;;;31.20;15.90;;;;;;;-0.78;100.00;100946.41;110087;1238;71923;-74
2024/01/12 03:40:04;;;;;;;30.20;15.70;;;;;;;-0.75;100.00;100952.67;110125;1238;59649;-73
2024/01/12 03:42:33;;;;;;;31.40;17.60;;;;;;;-0.83;100.00;100953.52;110155;1237;59515;-73
2024/01/12 03:45:02;;;;;;;31.50;16.60;;;;;;;-0.90;100.00;100960.52;110141;1237;74354;-73
2024/01/12 03:47:31;;;;;;;34.00;16.50;;;;;;;-0.95;100.00;100950.70;110147;1238;70050;-73
2024/01/12 03:50:00;;;;;;;30.00;15.10;;;;;;;-0.94;100.00;100960.42;110131;1238;71300;-74
2024/01/12 03:52:28;;;;;;;32.50;17.70;;;;;;;-0.96;100.00;100961.34;110139;1237;74232;-75
2024/01/12 03:54:57;;;;;;;34.00;16.00;;;;;;;-0.97;100.00;100964.78;110119;1238;60282;-76
2024/01/12 03:57:26;;;;;;;33.00;17.30;;;;;;;-1.03;100.00;100965.05;110154;1238;59527;-74
2024/01/12 03:59:55;;;;;;;33.20;15.20;;;;;;;-1.11;100.00;100967.09;110134;1237;74359;-74
2024/01/12 04:02:24;;;;;;;33.20;18.20;;;;;;;-1.08;100.00;100966.88;110107;1236;70620;-74
2024/01/12 04:04:53;;;;;;;38.90;18.10;;;;;;;-1.12;100.00;100971.39;110156;1237;68441;-74
2024/01/12 04:07:22;;;;;;;36.10;18.00;;;;;;;-1.13;100.00;100970.22;110157;1238;73001;-74
2024/01/12 04:09:50;;;;;;;36.30;17.80;;;;;;;-1.09;100.00;100973.56;110103;1237;61433;-74
2024/01/12 04:12:19;;;;;;;40.70;20.00;;;;;;;-1.13;100.00;100986.09;110152;1236;58422;-73
2024/01/12 04:14:48;;;;;;;33.70;16.00;;;;;;;-1.16;100.00;100986.18;110160;1238;72803;-74
2024/01/12 04:17:17;;;;;;;26.00;14.90;;;;;;;-1.09;100.00;100988.41;110142;1238;70346;-72
2024/01/12 04:19:45;;;;;;;33.50;16.50;;;;;;;-1.08;100.00;100994.05;110130;1236;69844;-72
2024/01/12 04:22:14;;;;;;;33.80;16.80;;;;;;;-1.10;100.00;101001.79;110113;1237;74364;-73
2024/01/12 04:24:43;;;;;;;40.00;18.30;;;;;;;-1.10;100.00;101002.13;109750;1244;60932;-73
2024/01/12 04:27:12;;;;;;;37.00;17.10;;;;;;;-1.12;100.00;100999.93;109960;1237;61044;-75
2024/01/12 04:29:41;;;;;;;35.70;18.20;;;;;;;-1.20;100.00;101007.27;110123;1237;75140;-74
2024/01/12 04:32:09;;;;;;;36.20;18.40;;;;;;;-1.09;100.00;101004.99;109990;1238;70601;-74
2024/01/12 04:34:38;;;;;;;39.10;20.80;;;;;;;-1.08;100.00;101009.95;110135;1236;69018;-73
2024/01/12 04:37:07;;;;;;;32.70;16.80;;;;;;;-1.16;100.00;101010.29;110179;1238;71867;-74
2024/01/12 04:39:36;;;;;;;30.60;15.70;;;;;;;-1.10;100.00;101012.20;110165;1238;61334;-74
2024/01/12 04:42:04;;;;;;;33.70;18.30;;;;;;;-1.13;100.00;101015.00;110208;1237;60428;-75
2024/01/12 04:44:34;;;;;;;34.50;17.30;;;;;;;-1.14;100.00;101024.26;110201;1238;72522;-73
2024/01/12 04:47:03;;;;;;;41.90;20.20;;;;;;;-1.13;100.00;101023.89;110171;1237;72099;-73
2024/01/12 04:49:32;;;;;;;40.90;20.30;;;;;;;-1.12;100.00;101032.92;110199;1237;69789;-74
2024/01/12 04:52:00;;;;;;;34.80;17.80;;;;;;;-1.12;100.00;101034.80;110007;1235;74506;-73
2024/01/12 04:54:29;;;;;;;32.40;17.60;;;;;;;-1.04;100.00;101046.46;110181;1236;62110;-74
2024/01/12 04:56:58;;;;;;;38.10;17.80;;;;;;;-0.98;100.00;101038.48;110166;1238;59441;-73
2024/01/12 04:59:27;;;;;;;36.20;17.90;;;;;;;-0.96;100.00;101050.75;110187;1238;72377;-82
2024/01/12 05:01:56;;;;;;;29.90;15.10;;;;;;;-0.90;100.00;101054.21;110169;1235;72259;-82
2024/01/12 05:04:24;;;;;;;33.10;18.30;;;;;;;-0.86;100.00;101047.47;110032;1236;70826;-70
2024/01/12 05:06:53;;;;;;;32.00;16.60;;;;;;;-0.87;100.00;101063.75;109995;1238;72468;-70
2024/01/12 05:09:22;;;;;;;38.40;18.30;;;;;;;-0.79;100.00;101072.14;110170;1238;60273;-71
2024/01/12 05:11:51;;;;;;;38.20;18.90;;;;;;;-0.83;100.00;101081.95;110000;1239;58669;-79
2024/01/12 05:14:20;;;;;;;37.90;17.50;;;;;;;-0.81;100.00;101081.08;110132;1237;74347;-73
2024/01/12 05:16:48;;;;;;;36.70;18.30;;;;;;;-0.88;100.00;101087.02;110153;1238;71627;-70
2024/01/12 05:19:17;;;;;;;21.60;11.20;;;;;;;-1.01;100.00;101119.91;110185;1236;69413;-71
2024/01/12 05:21:46;;;;;;;17.30;9.10;;;;;;;-1.31;100.00;101139.42;110139;1238;70809;-70
2024/01/12 05:24:15;;;;;;;5.70;3.10;;;;;;;-1.51;100.00;101155.11;110144;1238;61278;-71
2024/01/12 05:26:44;;;;;;;5.20;2.80;;;;;;;-1.80;100.00;101156.89;110118;1238;58732;-71
2024/01/12 05:29:14;;;;;;;5.70;3.00;;;;;;;-2.20;100.00;101160.35;110185;1237;72259;-70
2024/01/12 05:31:44;;;;;;;6.10;3.00;;;;;;;-2.14;100.00;101166.41;110110;1237;72317;-70
2024/01/12 05:34:13;;;;;;;6.00;2.30;;;;;;;-2.31;100.00;101177.89;110070;1238;70062;-70
2024/01/12 05:36:41;;;;;;;5.40;1.80;;;;;;;-2.36;100.00;101188.51;110154;1237;74007;-71
2024/01/12 05:39:10;;;;;;;4.80;2.20;;;;;;;-2.44;100.00;101197.48;110192;1238;59141;-71
2024/01/12 05:41:39;;;;;;;7.20;2.90;;;;;;;-2.51;100.00;101203.50;110169;1238;59479;-70
2024/01/12 05:44:08;;;;;;;5.10;2.00;;;;;;;-2.78;100.00;101206.02;110196;1238;72293;-70
2024/01/12 05:46:37;;;;;;;4.70;2.10;;;;;;;-2.79;100.00;101207.38;110172;1238;70147;-70
2024/01/12 05:49:06;;;;;;;2.40;1.50;;;;;;;-2.82;100.00;101212.01;110023;1238;68144;-71
2024/01/12 05:51:35;;;;;;;10.10;2.10;;;;;;;-2.88;100.00;101217.88;109978;1236;74208;-70
2024/01/12 05:54:04;;;;;;;4.70;1.90;;;;;;;-3.05;100.00;101218.00;110147;1238;60548;-70
2024/01/12 05:56:33;;;;;;;2.80;1.30;;;;;;;-3.17;100.00;101227.48;109940;1241;60218;-71
2024/01/12 05:59:02;;;;;;;4.00;1.40;;;;;;;-3.12;100.00;101234.94;110154;1238;74343;-70
2024/01/12 06:01:31;;;;;;;3.10;1.60;;;;;;;-3.06;100.00;101242.55;110142;1236;70688;-71
2024/01/12 06:04:00;;;;;;;1.60;1.30;;;;;;;-3.03;100.00;101242.54;110110;1236;67902;-72
2024/01/12 06:06:29;;;;;;;2.50;1.30;;;;;;;-3.26;100.00;101247.98;110108;1238;71867;-71
2024/01/12 06:08:58;;;;;;;2.50;1.30;;;;;;;-3.14;100.00;101254.38;110096;1238;61729;-71
2024/01/12 06:11:27;;;;;;;2.80;1.40;;;;;;;-3.35;100.00;101256.56;110097;1238;60881;-71
2024/01/12 06:13:55;;;;;;;4.80;1.80;;;;;;;-3.30;100.00;101268.96;110034;1238;75211;-71
2024/01/12 06:16:24;;;;;;;3.50;1.60;;;;;;;-3.34;100.00;101267.96;109975;1237;71559;-71
2024/01/12 06:18:53;;;;;;;3.20;1.50;;;;;;;-3.35;100.00;101277.17;109777;1240;67845;-71
2024/01/12 06:21:22;;;;;;;5.10;1.90;;;;;;;-3.31;100.00;101279.20;109802;1238;70926;-70
2024/01/12 06:23:51;;;;;;;10.00;2.30;;;;;;;-3.39;100.00;101289.63;109962;1238;59373;-72
2024/01/12 06:26:20;;;;;;;7.60;2.50;;;;;;;-3.58;100.00;101291.59;109958;1237;61250;-70
2024/01/12 06:28:48;;;;;;;4.40;2.10;;;;;;;-3.58;100.00;101300.63;109981;1236;74051;-70
2024/01/12 06:31:17;;;;;;;4.90;1.90;;;;;;;-3.62;100.00;101309.50;109951;1238;70822;-70
2024/01/12 06:33:46;;;;;;;3.50;1.60;;;;;;;-3.55;100.00;101312.52;109941;1238;67840;-71
2024/01/12 06:36:15;;;;;;;7.80;1.90;;;;;;;-3.58;100.00;101310.35;109724;1241;70987;-71
2024/01/12 06:38:44;;;;;;;6.20;1.80;;;;;;;-3.66;100.00;101304.91;109754;1237;59683;-70
2024/01/12 06:41:12;;;;;;;6.20;1.90;;;;;;;-3.64;100.00;101306.45;109927;1237;61664;-71
2024/01/12 06:43:41;;;;;;;3.60;1.50;;;;;;;-3.79;100.00;101305.31;109881;1238;73370;-70
2024/01/12 06:46:10;;;;;;;8.90;1.90;;;;;;;-3.77;100.00;101316.71;109950;1238;70328;-71
2024/01/12 06:48:39;;;;;;;4.10;2.00;;;;;;;-3.74;100.00;101321.64;109964;1236;70553;-71
2024/01/12 06:51:08;;;;;;;3.70;1.90;;;;;;;-3.65;100.00;101332.17;109765;1241;70931;-70
2024/01/12 06:53:37;;;;;;;4.50;2.10;;;;;;;-3.53;100.00;101336.36;110178;1237;59518;-71
2024/01/12 06:56:06;;;;;;;5.60;2.20;;;;;;;-3.50;100.00;101341.29;110108;1239;59472;-71
2024/01/12 06:58:35;;;;;;;5.00;2.70;;;;;;;-3.28;100.00;101352.09;110109;1236;71670;-71
2024/01/12 07:01:04;;;;;;;9.20;2.50;;;;;;;-3.19;100.00;101362.27;109871;1238;315007;-71
2024/01/12 07:03:33;;;;;;;3.10;2.00;;;;;;;-3.04;100.00;101367.80;110122;1238;68625;-73
2024/01/12 07:06:03;;;;;;;4.30;1.90;;;;;;;-3.00;100.00;101367.94;110112;1236;73696;-72
2024/01/12 07:08:31;;;;;;;4.30;2.30;;;;;;;-2.99;100.00;101366.91;109781;1239;61606;-72
2024/01/12 07:11:03;;;;;;;5.70;2.90;;;;;;;-3.00;100.00;101369.13;110121;1236;60563;-71
2024/01/12 07:13:32;;;;;;;5.80;3.10;;;;;;;-3.09;100.00;101376.17;109878;1236;74349;-70
2024/01/12 07:16:02;;;;;;;3.70;2.00;;;;;;;-3.11;100.00;101380.11;110162;1238;70556;-71
2024/01/12 07:18:30;;;;;;;4.70;2.70;;;;;;;-2.99;100.00;101384.64;110271;1236;70648;-71
2024/01/12 07:21:03;;;;;;;4.00;2.10;;;;;;;-3.04;100.00;101392.00;110023;1239;74793;-71
2024/01/12 07:23:32;;;;;;;9.70;2.10;;;;;;;-3.15;100.00;101394.09;110093;1238;59372;-72
2024/01/12 07:26:01;;;;;;;4.70;2.00;;;;;;;-3.11;100.00;101401.92;110099;1236;58688;-71
2024/01/12 07:28:30;;;;;;;6.50;2.00;;;;;;;-3.22;100.00;101405.72;110150;1238;71586;-71
2024/01/12 07:30:59;;;;;;;4.90;1.90;;;;;;;-3.38;100.00;101411.41;109923;1241;70797;-72
2024/01/12 07:33:28;;;;;;;6.90;2.00;;;;;;;-3.58;100.00;101417.09;110110;1238;68672;-71
2024/01/12 07:35:57;;;;;;;3.80;1.80;;;;;;;-3.55;100.00;101420.16;110067;1238;71855;-70
2024/01/12 07:38:26;;;;;;;6.70;3.80;;;;;;;-3.62;100.00;101422.55;110084;1238;59649;-71
2024/01/12 07:40:55;;;;;;;5.00;2.30;;;;;;;-3.69;100.00;101432.27;110101;1235;58930;-71
2024/01/12 07:43:23;;;;;;;5.50;2.50;;;;;;;-3.69;100.00;101438.76;110090;1237;74952;-71
2024/01/12 07:45:53;;;;;;;4.10;2.10;;;;;;;-3.89;100.00;101438.27;110066;1238;70577;-71
2024/01/12 07:48:22;;;;;;;5.00;1.90;;;;;;;-3.91;100.00;101443.72;110107;1237;70520;-71
2024/01/12 07:50:51;;;;;;;6.20;1.40;;;;;;;-3.97;100.00;101450.02;110060;1238;72156;-72
2024/01/12 07:53:20;;;;;;;5.90;1.70;;;;;;;-4.06;100.00;101451.05;110021;1239;59231;-71
2024/01/12 07:55:52;;;;;;;3.30;1.80;;;;;;;-4.02;100.00;101448.66;110154;1237;58674;-72
2024/01/12 07:58:21;;;;;;;5.90;1.70;;;;;;;-4.12;100.00;101448.66;109982;1236;71737;-70
2024/01/12 08:00:49;;;;;;;4.60;1.90;;;;;;;-4.15;100.00;101454.28;110084;1236;72130;-71
2024/01/12 08:03:18;;;;;;;5.90;2.50;;;;;;;-4.07;100.00;101459.71;110109;1236;71488;-71
2024/01/12 08:05:47;;;;;;;5.30;2.20;;;;;;;-4.00;100.00;101473.67;110034;1238;73520;-70
2024/01/12 08:08:16;;;;;;;7.80;2.30;;;;;;;-3.97;100.00;101477.42;109953;1235;60900;-71
2024/01/12 08:10:46;;;;;;;6.00;1.60;;;;;;;-4.10;100.00;101489.15;109955;1238;62054;-70
2024/01/12 08:13:15;;;;;;;3.30;1.70;;;;;;;-4.30;100.00;101506.15;109933;1238;72989;-71
2024/01/12 08:15:46;;;;;;;4.60;1.90;;;;;;;-4.36;100.00;101521.79;109879;1238;69851;-71
2024/01/12 08:18:15;;;;;;;4.10;1.90;;;;;;;-4.36;100.00;101530.46;110030;1236;68433;-72
2024/01/12 08:20:53;;;;;;;5.20;1.90;;;;;;;-4.56;100.00;101515.45;109909;1238;71926;-72
2024/01/12 08:23:22;;;;;;;4.30;1.70;;;;;;;-4.49;100.00;101527.20;110106;1238;59426;-71
2024/01/12 08:25:58;;;;;;;7.10;1.90;;;;;;;-4.53;100.00;101533.48;110152;1236;60927;-73
2024/01/12 08:28:27;;;;;;;5.90;2.50;;;;;;;-4.50;100.00;101540.12;110234;1235;74800;-72
2024/01/12 08:30:56;;;;;;;4.40;1.50;;;;;;;-4.66;100.00;101543.64;110101;1236;71632;-71
2024/01/12 08:33:24;;;;;;;7.60;2.00;;;;;;;-4.73;100.00;101544.80;110116;1236;69797;-71
2024/01/12 08:35:56;;;;;;;3.10;1.60;;;;;;;-4.74;100.00;101545.98;110137;1238;73091;-72
2024/01/12 08:38:43;;;;;;;2.90;1.50;;;;;;;-4.51;100.00;101539.27;110121;1238;59108;-71
2024/01/12 08:41:11;;;;;;;2.90;1.50;;;;;;;-4.49;100.00;101543.52;110124;1238;61601;-72
2024/01/12 08:43:43;;;;;;;3.80;1.40;;;;;;;-4.46;100.00;101540.81;109938;1236;72112;-73
2024/01/12 08:46:12;;;;;;;7.20;1.90;;;;;;;-4.20;100.00;101548.68;110114;1237;70203;-72
2024/01/12 08:48:43;;;;;;;3.60;2.20;;;;;;;-4.25;100.00;101562.45;110045;1237;68196;-72
2024/01/12 08:51:12;;;;;;;8.40;3.00;;;;;;;-4.14;100.00;101559.24;109922;1238;74485;-71
2024/01/12 08:53:41;;;;;;;3.70;1.90;;;;;;;-4.08;100.00;101563.52;109921;1238;61134;-72
2024/01/12 08:56:09;;;;;;;5.20;2.30;;;;;;;-3.84;100.00;101559.97;109975;1235;61652;-71
2024/01/12 08:58:38;;;;;;;4.70;2.90;;;;;;;-3.95;100.00;101563.52;109969;1236;72813;-73
2024/01/12 09:01:07;;;;;;;5.90;2.10;;;;;;;-3.99;100.00;101562.84;109964;1237;69925;-71
2024/01/12 09:03:36;;;;;;;18.90;8.40;;;;;;;-4.08;100.00;101564.20;109945;1236;69745;-71
2024/01/12 09:06:05;;;;;;;4.80;2.30;;;;;;;-4.28;100.00;101566.02;109936;1238;74504;-71
2024/01/12 09:08:34;;;;;;;6.40;2.30;;;;;;;-4.46;100.00;101566.81;109953;1238;61482;-72
2024/01/12 09:11:03;;;;;;;6.90;3.00;;;;;;;-4.35;100.00;101566.69;109796;1236;60779;-70
2024/01/12 09:13:32;;;;;;;8.50;2.40;;;;;;;-4.26;100.00;101564.49;109941;1237;73880;-73
2024/01/12 09:16:01;;;;;;;6.20;2.50;;;;;;;-4.17;100.00;101567.74;109990;1235;69440;-72
2024/01/12 09:18:30;;;;;;;7.00;2.70;;;;;;;-4.20;100.00;101566.73;109890;1236;69576;-83
2024/01/12 09:20:59;;;;;;;7.00;2.20;;;;;;;-4.32;100.00;101561.59;109750;1236;73434;-77
2024/01/12 09:23:28;;;;;;;5.30;2.30;;;;;;;-4.31;100.00;101569.77;109750;1240;60841;-79
2024/01/12 09:25:57;;;;;;;6.00;3.20;;;;;;;-4.08;100.00;101571.68;109904;1238;60867;-78
2024/01/12 09:28:25;;;;;;;4.20;2.50;;;;;;;-4.21;100.00;101572.85;109691;1238;73991;-79
2024/01/12 09:30:54;;;;;;;7.30;2.80;;;;;;;-4.15;100.00;101581.70;109918;1236;70749;-79
2024/01/12 09:33:23;;;;;;;4.40;2.90;;;;;;;-4.35;100.00;101576.73;109953;1236;67894;-78
2024/01/12 09:35:52;;;;;;;8.10;3.30;;;;;;;-4.07;100.00;101566.56;109907;1238;69870;-79
2024/01/12 09:38:21;;;;;;;15.60;5.50;;;;;;;-4.08;100.00;101568.78;109799;1240;59516;-77
2024/01/12 09:40:51;;;;;;;6.50;3.30;;;;;;;-4.08;100.00;101574.73;109773;1236;61752;-77
2024/01/12 09:43:22;;;;;;;7.90;3.10;;;;;;;-3.94;100.00;101584.80;109808;1237;73681;-78
2024/01/12 09:45:51;;;;;;;5.60;2.70;;;;;;;-3.41;100.00;101594.68;109640;1236;70978;-78
2024/01/12 09:48:21;;;;;;;4.80;2.70;;;;;;;-3.67;100.00;101597.08;109766;1239;69853;-77
2024/01/12 09:50:53;;;;;;;6.60;2.90;;;;;;;-3.58;100.00;101598.78;109642;1235;73877;-79
2024/01/12 09:53:22;;;;;;;8.80;3.60;;;;;;;-3.46;100.00;101600.31;109897;1238;60058;-78
2024/01/12 09:55:54;;;;;;;4.70;2.00;;;;;;;-3.82;100.00;101597.91;109969;1238;60712;-77
2024/01/12 09:58:39;;;;;;;8.90;3.10;;;;;;;-4.09;100.00;101596.69;109810;1236;72857;-77
2024/01/12 10:01:11;;;;;;;6.30;2.60;;;;;;;-4.01;100.00;101607.09;109784;1238;70306;-77
2024/01/12 10:03:41;;;;;;;5.10;2.60;;;;;;;-4.04;100.00;101617.11;109726;1237;70516;-80
2024/01/12 10:06:11;;;;;;;6.80;3.20;;;;;;;-4.02;100.00;101621.72;109838;1235;72833;-77
2024/01/12 10:08:40;;;;;;;4.80;2.40;;;;;;;-4.04;100.00;101630.05;109820;1238;58192;-79
2024/01/12 10:11:09;;;;;;;4.70;2.40;;;;;;;-3.97;100.00;101634.15;110052;1236;61128;-77
2024/01/12 10:13:38;;;;;;;4.60;2.60;;;;;;;-3.98;100.00;101637.89;109997;1237;73957;-78
2024/01/12 10:16:08;;;;;;;8.00;2.30;;;;;;;-4.07;100.00;101637.86;109611;1236;70747;-79
2024/01/12 10:18:37;;;;;;;4.40;2.60;;;;;;;-3.98;100.00;101634.48;109567;1236;69670;-77
2024/01/12 10:21:11;;;;;;;4.30;2.40;;;;;;;-3.71;100.00;101631.47;109719;1237;73445;-77
2024/01/12 10:23:41;;;;;;;19.80;11.90;;;;;;;-3.62;100.00;101628.41;109657;1235;60718;-82
2024/01/12 10:26:15;;;;;;;6.30;3.00;;;;;;;-3.56;100.00;101619.21;109671;1237;61681;-77
2024/01/12 10:28:44;;;;;;;10.10;4.10;;;;;;;-3.31;100.00;101618.69;109744;1236;72848;-77
2024/01/12 10:31:13;;;;;;;7.00;2.70;;;;;;;-3.00;100.00;101618.31;109761;1237;70283;-77
2024/01/12 10:33:43;;;;;;;4.80;2.70;;;;;;;-2.59;100.00;101627.92;109835;1235;69029;-81
2024/01/12 10:36:21;;;;;;;5.90;2.80;;;;;;;-2.76;100.00;101627.80;109778;1236;73598;-77
2024/01/12 10:38:52;;;;;;;7.90;3.00;;;;;;;-2.90;100.00;101629.72;109801;1236;60208;-77
2024/01/12 10:41:24;;;;;;;3.90;2.10;;;;;;;-2.57;100.00;101628.26;110022;1235;60498;-77
2024/01/12 10:43:58;;;;;;;4.50;2.20;;;;;;;-2.55;100.00;101633.54;109563;1236;73618;-77
2024/01/12 10:46:35;;;;;;;8.10;2.60;;;;;;;-3.00;100.00;101632.63;109661;1236;73063;-77
2024/01/12 10:49:18;;;;;;;6.60;2.90;;;;;;;-2.74;100.00;101623.36;109589;1236;70476;-77
2024/01/12 10:52:13;;;;;;;5.30;2.30;;;;;;;-2.96;100.00;101625.30;109662;1235;71912;-77
2024/01/12 10:54:59;;;;;;;4.40;2.30;;;;;;;-2.83;100.00;101619.98;109758;1238;59285;-78
2024/01/12 10:57:30;;;;;;;3.70;2.40;;;;;;;-2.89;100.00;101611.30;109790;1236;60108;-79
2024/01/12 11:00:00;;;;;;;5.10;2.40;;;;;;;-3.29;98.91;101601.82;109745;1237;72839;-74
2024/01/12 11:02:30;;;;;;;2.50;1.80;;;;;;;-3.15;100.00;101599.42;109758;1237;70727;-76
2024/01/12 11:05:00;;;;;;;2.20;1.70;;;;;;;-3.13;99.73;101597.70;109944;1235;70502;-76
2024/01/12 11:07:30;;;;;;;5.50;2.50;;;;;;;-3.15;98.64;101596.37;109745;1237;72245;-75
2024/01/12 11:10:00;;;;;;;6.20;2.20;;;;;;;-2.90;99.06;101600.73;109981;1238;58815;-75
2024/01/12 11:12:35;;;;;;;5.50;2.40;;;;;;;-2.95;98.86;101606.38;109818;1236;60244;-75